sensor_id;sensor_type;location;lat;lon;timestamp;P1;durP1;ratioP1;P2;durP2;ratioP2
44816;SDS011;30529;53.570;9.964;2023-02-26T00:22:07;5.67;;;1.20;;
44816;SDS011;30529;53.570;9.964;2023-02-26T00:24:37;5.10;;;1.47;;
44816;SDS011;30529;53.570;9.964;2023-02-26T00:27:03;3.30;;;1.00;;
44816;SDS011;30529;53.570;9.964;2023-02-26T00:29:29;2.73;;;1.37;;
44816;SDS011;30529;53.570;9.964;2023-02-26T00:31:56;5.07;;;1.20;;
44816;SDS011;30529;53.570;9.964;2023-02-26T00:34:22;4.33;;;1.60;;
44816;SDS011;30529;53.570;9.964;2023-02-26T00:36:58;3.90;;;1.30;;
44816;SDS011;30529;53.570;9.964;2023-02-26T00:41:58;4.90;;;1.40;;
44816;SDS011;30529;53.570;9.964;2023-02-26T00:44:25;4.70;;;1.63;;
44816;SDS011;30529;53.570;9.964;2023-02-26T00:55:10;3.43;;;1.20;;
44816;SDS011;30529;53.570;9.964;2023-02-26T00:57:36;1.77;;;1.20;;
44816;SDS011;30529;53.570;9.964;2023-02-26T01:00:03;4.30;;;1.30;;
44816;SDS011;30529;53.570;9.964;2023-02-26T01:02:34;5.07;;;1.37;;
44816;SDS011;30529;53.570;9.964;2023-02-26T01:05:01;5.80;;;1.53;;
44816;SDS011;30529;53.570;9.964;2023-02-26T01:07:28;3.33;;;1.17;;
44816;SDS011;30529;53.570;9.964;2023-02-26T01:10:11;3.30;;;1.00;;
44816;SDS011;30529;53.570;9.964;2023-02-26T01:12:38;7.67;;;1.70;;
44816;SDS011;30529;53.570;9.964;2023-02-26T01:15:05;4.53;;;1.20;;
44816;SDS011;30529;53.570;9.964;2023-02-26T01:17:38;2.53;;;1.57;;
44816;SDS011;30529;53.570;9.964;2023-02-26T01:20:19;6.97;;;1.23;;
44816;SDS011;30529;53.570;9.964;2023-02-26T01:22:53;2.03;;;0.90;;
44816;SDS011;30529;53.570;9.964;2023-02-26T01:25:29;3.60;;;1.43;;
44816;SDS011;30529;53.570;9.964;2023-02-26T01:28:03;2.43;;;1.20;;
44816;SDS011;30529;53.570;9.964;2023-02-26T01:30:30;5.77;;;1.07;;
44816;SDS011;30529;53.570;9.964;2023-02-26T01:36:05;3.57;;;1.17;;
44816;SDS011;30529;53.570;9.964;2023-02-26T01:44:03;3.17;;;1.10;;
44816;SDS011;30529;53.570;9.964;2023-02-26T01:49:18;5.03;;;1.00;;
44816;SDS011;30529;53.570;9.964;2023-02-26T01:51:46;2.43;;;0.80;;
44816;SDS011;30529;53.570;9.964;2023-02-26T01:54:16;2.40;;;0.97;;
44816;SDS011;30529;53.570;9.964;2023-02-26T01:56:44;4.60;;;1.20;;
44816;SDS011;30529;53.570;9.964;2023-02-26T01:59:15;4.80;;;0.83;;
44816;SDS011;30529;53.570;9.964;2023-02-26T02:01:49;2.87;;;1.00;;
44816;SDS011;30529;53.570;9.964;2023-02-26T02:04:20;3.13;;;1.10;;
44816;SDS011;30529;53.570;9.964;2023-02-26T02:06:51;4.03;;;0.90;;
44816;SDS011;30529;53.570;9.964;2023-02-26T02:09:19;5.97;;;1.00;;
44816;SDS011;30529;53.570;9.964;2023-02-26T02:14:41;3.40;;;1.20;;
44816;SDS011;30529;53.570;9.964;2023-02-26T02:20:31;2.33;;;0.93;;
44816;SDS011;30529;53.570;9.964;2023-02-26T02:23:11;4.00;;;1.20;;
44816;SDS011;30529;53.570;9.964;2023-02-26T02:32:17;2.00;;;0.80;;
44816;SDS011;30529;53.570;9.964;2023-02-26T02:35:03;3.80;;;1.10;;
44816;SDS011;30529;53.570;9.964;2023-02-26T02:37:35;2.40;;;1.27;;
44816;SDS011;30529;53.570;9.964;2023-02-26T02:40:04;3.37;;;1.20;;
44816;SDS011;30529;53.570;9.964;2023-02-26T02:42:45;3.80;;;1.17;;
44816;SDS011;30529;53.570;9.964;2023-02-26T02:45:24;3.90;;;1.20;;
44816;SDS011;30529;53.570;9.964;2023-02-26T02:47:58;2.47;;;1.40;;
44816;SDS011;30529;53.570;9.964;2023-02-26T02:50:32;3.13;;;1.40;;
44816;SDS011;30529;53.570;9.964;2023-02-26T02:53:18;2.97;;;1.17;;
44816;SDS011;30529;53.570;9.964;2023-02-26T02:58:24;5.40;;;1.43;;
44816;SDS011;30529;53.570;9.964;2023-02-26T03:00:55;4.20;;;1.33;;
44816;SDS011;30529;53.570;9.964;2023-02-26T03:06:15;3.87;;;1.40;;
44816;SDS011;30529;53.570;9.964;2023-02-26T03:08:42;4.70;;;1.10;;
44816;SDS011;30529;53.570;9.964;2023-02-26T03:11:10;4.20;;;1.20;;
44816;SDS011;30529;53.570;9.964;2023-02-26T03:13:36;4.90;;;1.10;;
44816;SDS011;30529;53.570;9.964;2023-02-26T03:16:27;3.07;;;1.50;;
44816;SDS011;30529;53.570;9.964;2023-02-26T03:19:17;5.63;;;1.07;;
44816;SDS011;30529;53.570;9.964;2023-02-26T03:22:00;5.40;;;1.17;;
44816;SDS011;30529;53.570;9.964;2023-02-26T03:24:39;2.93;;;1.27;;
44816;SDS011;30529;53.570;9.964;2023-02-26T03:27:32;5.40;;;1.10;;
44816;SDS011;30529;53.570;9.964;2023-02-26T03:30:17;4.97;;;1.20;;
44816;SDS011;30529;53.570;9.964;2023-02-26T03:35:31;3.77;;;1.20;;
44816;SDS011;30529;53.570;9.964;2023-02-26T03:38:04;2.03;;;1.00;;
44816;SDS011;30529;53.570;9.964;2023-02-26T03:40:36;3.57;;;1.10;;
44816;SDS011;30529;53.570;9.964;2023-02-26T03:43:22;4.93;;;1.33;;
44816;SDS011;30529;53.570;9.964;2023-02-26T03:45:55;2.67;;;0.97;;
44816;SDS011;30529;53.570;9.964;2023-02-26T03:48:26;3.27;;;1.50;;
44816;SDS011;30529;53.570;9.964;2023-02-26T03:50:56;3.73;;;1.30;;
44816;SDS011;30529;53.570;9.964;2023-02-26T03:53:26;6.73;;;1.60;;
44816;SDS011;30529;53.570;9.964;2023-02-26T03:56:01;2.17;;;0.97;;
44816;SDS011;30529;53.570;9.964;2023-02-26T03:58:35;4.57;;;1.13;;
44816;SDS011;30529;53.570;9.964;2023-02-26T04:01:03;1.20;;;0.90;;
44816;SDS011;30529;53.570;9.964;2023-02-26T04:03:40;4.30;;;0.90;;
44816;SDS011;30529;53.570;9.964;2023-02-26T04:06:10;4.20;;;0.97;;
44816;SDS011;30529;53.570;9.964;2023-02-26T04:08:37;2.83;;;1.27;;
44816;SDS011;30529;53.570;9.964;2023-02-26T04:11:09;2.57;;;0.90;;
44816;SDS011;30529;53.570;9.964;2023-02-26T04:13:37;3.00;;;1.00;;
44816;SDS011;30529;53.570;9.964;2023-02-26T04:16:03;4.40;;;1.70;;
44816;SDS011;30529;53.570;9.964;2023-02-26T04:18:30;3.67;;;0.93;;
44816;SDS011;30529;53.570;9.964;2023-02-26T04:20:56;1.73;;;0.87;;
44816;SDS011;30529;53.570;9.964;2023-02-26T04:23:22;3.93;;;1.30;;
44816;SDS011;30529;53.570;9.964;2023-02-26T04:25:48;2.67;;;1.10;;
44816;SDS011;30529;53.570;9.964;2023-02-26T04:28:14;2.10;;;0.87;;
44816;SDS011;30529;53.570;9.964;2023-02-26T04:30:40;2.00;;;0.83;;
44816;SDS011;30529;53.570;9.964;2023-02-26T04:33:06;2.40;;;0.90;;
44816;SDS011;30529;53.570;9.964;2023-02-26T04:35:32;3.03;;;1.00;;
44816;SDS011;30529;53.570;9.964;2023-02-26T04:37:58;2.20;;;1.00;;
44816;SDS011;30529;53.570;9.964;2023-02-26T04:40:24;2.67;;;1.27;;
44816;SDS011;30529;53.570;9.964;2023-02-26T04:42:50;2.87;;;0.83;;
44816;SDS011;30529;53.570;9.964;2023-02-26T04:45:16;4.10;;;1.07;;
44816;SDS011;30529;53.570;9.964;2023-02-26T04:47:42;3.33;;;1.07;;
44816;SDS011;30529;53.570;9.964;2023-02-26T04:50:08;3.43;;;1.50;;
44816;SDS011;30529;53.570;9.964;2023-02-26T04:52:35;3.37;;;1.20;;
44816;SDS011;30529;53.570;9.964;2023-02-26T04:55:01;3.63;;;1.33;;
44816;SDS011;30529;53.570;9.964;2023-02-26T04:57:27;1.27;;;0.77;;
44816;SDS011;30529;53.570;9.964;2023-02-26T04:59:53;3.53;;;1.40;;
44816;SDS011;30529;53.570;9.964;2023-02-26T05:02:19;4.27;;;1.10;;
44816;SDS011;30529;53.570;9.964;2023-02-26T05:04:45;4.27;;;1.07;;
44816;SDS011;30529;53.570;9.964;2023-02-26T05:07:11;3.97;;;1.27;;
44816;SDS011;30529;53.570;9.964;2023-02-26T05:09:37;3.13;;;1.00;;
44816;SDS011;30529;53.570;9.964;2023-02-26T05:12:03;1.87;;;0.80;;
44816;SDS011;30529;53.570;9.964;2023-02-26T05:14:29;2.50;;;1.27;;
44816;SDS011;30529;53.570;9.964;2023-02-26T05:16:55;5.80;;;1.10;;
44816;SDS011;30529;53.570;9.964;2023-02-26T05:19:21;5.30;;;0.73;;
44816;SDS011;30529;53.570;9.964;2023-02-26T05:21:48;2.30;;;0.83;;
44816;SDS011;30529;53.570;9.964;2023-02-26T05:24:14;1.20;;;0.87;;
44816;SDS011;30529;53.570;9.964;2023-02-26T05:26:41;5.53;;;1.10;;
44816;SDS011;30529;53.570;9.964;2023-02-26T05:29:07;4.30;;;1.10;;
44816;SDS011;30529;53.570;9.964;2023-02-26T05:31:33;4.00;;;0.90;;
44816;SDS011;30529;53.570;9.964;2023-02-26T05:33:59;5.10;;;1.07;;
44816;SDS011;30529;53.570;9.964;2023-02-26T05:36:25;3.60;;;1.27;;
44816;SDS011;30529;53.570;9.964;2023-02-26T05:38:54;5.57;;;2.03;;
44816;SDS011;30529;53.570;9.964;2023-02-26T05:41:19;4.87;;;1.17;;
44816;SDS011;30529;53.570;9.964;2023-02-26T05:43:46;3.80;;;1.50;;
44816;SDS011;30529;53.570;9.964;2023-02-26T05:46:12;2.90;;;1.10;;
44816;SDS011;30529;53.570;9.964;2023-02-26T05:48:38;2.73;;;1.23;;
44816;SDS011;30529;53.570;9.964;2023-02-26T05:51:04;3.97;;;1.07;;
44816;SDS011;30529;53.570;9.964;2023-02-26T05:53:30;6.80;;;1.20;;
44816;SDS011;30529;53.570;9.964;2023-02-26T05:55:56;5.60;;;1.53;;
44816;SDS011;30529;53.570;9.964;2023-02-26T05:58:22;3.37;;;1.53;;
44816;SDS011;30529;53.570;9.964;2023-02-26T06:00:48;6.27;;;1.10;;
44816;SDS011;30529;53.570;9.964;2023-02-26T06:03:17;2.30;;;0.80;;
44816;SDS011;30529;53.570;9.964;2023-02-26T06:05:43;3.03;;;0.87;;
44816;SDS011;30529;53.570;9.964;2023-02-26T06:08:09;3.93;;;1.07;;
44816;SDS011;30529;53.570;9.964;2023-02-26T06:10:40;4.57;;;2.03;;
44816;SDS011;30529;53.570;9.964;2023-02-26T06:13:07;3.77;;;1.20;;
44816;SDS011;30529;53.570;9.964;2023-02-26T06:15:33;2.77;;;1.07;;
44816;SDS011;30529;53.570;9.964;2023-02-26T06:17:59;5.90;;;1.00;;
44816;SDS011;30529;53.570;9.964;2023-02-26T06:20:25;2.93;;;1.00;;
44816;SDS011;30529;53.570;9.964;2023-02-26T06:22:51;2.63;;;0.90;;
44816;SDS011;30529;53.570;9.964;2023-02-26T06:25:17;7.93;;;1.87;;
44816;SDS011;30529;53.570;9.964;2023-02-26T06:27:43;2.20;;;0.80;;
44816;SDS011;30529;53.570;9.964;2023-02-26T06:30:09;2.07;;;1.13;;
44816;SDS011;30529;53.570;9.964;2023-02-26T06:32:36;3.63;;;1.00;;
44816;SDS011;30529;53.570;9.964;2023-02-26T06:35:02;3.93;;;0.90;;
44816;SDS011;30529;53.570;9.964;2023-02-26T06:37:28;2.87;;;1.40;;
44816;SDS011;30529;53.570;9.964;2023-02-26T06:39:54;4.00;;;0.73;;
44816;SDS011;30529;53.570;9.964;2023-02-26T06:42:22;2.93;;;0.90;;
44816;SDS011;30529;53.570;9.964;2023-02-26T06:44:48;1.47;;;0.93;;
44816;SDS011;30529;53.570;9.964;2023-02-26T06:47:14;2.60;;;0.93;;
44816;SDS011;30529;53.570;9.964;2023-02-26T06:49:51;3.77;;;1.10;;
44816;SDS011;30529;53.570;9.964;2023-02-26T06:52:16;2.80;;;1.00;;
44816;SDS011;30529;53.570;9.964;2023-02-26T06:54:42;3.83;;;1.30;;
44816;SDS011;30529;53.570;9.964;2023-02-26T06:57:11;2.97;;;1.20;;
44816;SDS011;30529;53.570;9.964;2023-02-26T06:59:37;4.37;;;1.13;;
44816;SDS011;30529;53.570;9.964;2023-02-26T07:02:03;3.57;;;0.93;;
44816;SDS011;30529;53.570;9.964;2023-02-26T07:04:32;3.07;;;1.13;;
44816;SDS011;30529;53.570;9.964;2023-02-26T07:06:58;3.53;;;1.00;;
44816;SDS011;30529;53.570;9.964;2023-02-26T07:09:23;4.77;;;0.90;;
44816;SDS011;30529;53.570;9.964;2023-02-26T07:11:49;2.13;;;0.97;;
44816;SDS011;30529;53.570;9.964;2023-02-26T07:14:15;1.70;;;1.10;;
44816;SDS011;30529;53.570;9.964;2023-02-26T07:16:42;4.93;;;1.50;;
44816;SDS011;30529;53.570;9.964;2023-02-26T07:19:07;3.37;;;1.10;;
44816;SDS011;30529;53.570;9.964;2023-02-26T07:21:34;4.63;;;1.17;;
44816;SDS011;30529;53.570;9.964;2023-02-26T07:24:00;3.43;;;1.20;;
44816;SDS011;30529;53.570;9.964;2023-02-26T07:26:26;2.40;;;1.13;;
44816;SDS011;30529;53.570;9.964;2023-02-26T07:28:52;4.27;;;1.30;;
44816;SDS011;30529;53.570;9.964;2023-02-26T07:31:18;6.50;;;1.40;;
44816;SDS011;30529;53.570;9.964;2023-02-26T07:33:44;3.77;;;1.10;;
44816;SDS011;30529;53.570;9.964;2023-02-26T07:36:10;6.43;;;1.03;;
44816;SDS011;30529;53.570;9.964;2023-02-26T07:38:36;5.67;;;1.40;;
44816;SDS011;30529;53.570;9.964;2023-02-26T07:41:02;4.00;;;1.10;;
44816;SDS011;30529;53.570;9.964;2023-02-26T07:43:28;3.43;;;1.83;;
44816;SDS011;30529;53.570;9.964;2023-02-26T07:45:54;1.87;;;1.20;;
44816;SDS011;30529;53.570;9.964;2023-02-26T07:48:20;2.93;;;1.30;;
44816;SDS011;30529;53.570;9.964;2023-02-26T07:50:46;3.83;;;1.30;;
44816;SDS011;30529;53.570;9.964;2023-02-26T07:53:12;3.80;;;1.10;;
44816;SDS011;30529;53.570;9.964;2023-02-26T07:55:38;6.07;;;1.33;;
44816;SDS011;30529;53.570;9.964;2023-02-26T07:58:38;2.73;;;1.10;;
44816;SDS011;30529;53.570;9.964;2023-02-26T08:01:54;5.03;;;1.43;;
44816;SDS011;30529;53.570;9.964;2023-02-26T08:07:44;4.97;;;1.40;;
44816;SDS011;30529;53.570;9.964;2023-02-26T08:10:41;3.47;;;1.20;;
44816;SDS011;30529;53.570;9.964;2023-02-26T08:13:07;5.03;;;1.53;;
44816;SDS011;30529;53.570;9.964;2023-02-26T08:15:46;2.97;;;1.30;;
44816;SDS011;30529;53.570;9.964;2023-02-26T08:22:04;3.23;;;1.17;;
44816;SDS011;30529;53.570;9.964;2023-02-26T08:25:12;5.73;;;1.30;;
44816;SDS011;30529;53.570;9.964;2023-02-26T08:32:09;6.30;;;1.63;;
44816;SDS011;30529;53.570;9.964;2023-02-26T08:38:25;2.50;;;1.33;;
44816;SDS011;30529;53.570;9.964;2023-02-26T08:41:06;4.70;;;1.33;;
44816;SDS011;30529;53.570;9.964;2023-02-26T08:43:50;5.00;;;1.40;;
44816;SDS011;30529;53.570;9.964;2023-02-26T08:46:48;3.47;;;1.30;;
44816;SDS011;30529;53.570;9.964;2023-02-26T08:53:34;2.37;;;1.10;;
44816;SDS011;30529;53.570;9.964;2023-02-26T08:56:28;4.67;;;1.27;;
44816;SDS011;30529;53.570;9.964;2023-02-26T09:12:44;4.13;;;1.67;;
44816;SDS011;30529;53.570;9.964;2023-02-26T09:16:09;3.33;;;1.27;;
44816;SDS011;30529;53.570;9.964;2023-02-26T09:19:09;3.00;;;1.00;;
44816;SDS011;30529;53.570;9.964;2023-02-26T09:22:08;7.23;;;2.00;;
44816;SDS011;30529;53.570;9.964;2023-02-26T09:25:44;5.77;;;1.50;;
44816;SDS011;30529;53.570;9.964;2023-02-26T09:28:27;3.13;;;1.10;;
44816;SDS011;30529;53.570;9.964;2023-02-26T09:31:05;3.63;;;1.13;;
44816;SDS011;30529;53.570;9.964;2023-02-26T09:33:37;3.97;;;1.10;;
44816;SDS011;30529;53.570;9.964;2023-02-26T09:36:04;1.50;;;1.10;;
44816;SDS011;30529;53.570;9.964;2023-02-26T09:38:30;3.37;;;1.20;;
44816;SDS011;30529;53.570;9.964;2023-02-26T09:40:57;4.00;;;1.13;;
44816;SDS011;30529;53.570;9.964;2023-02-26T10:41:46;2.27;;;0.70;;
44816;SDS011;30529;53.570;9.964;2023-02-26T10:44:21;0.80;;;0.70;;
44816;SDS011;30529;53.570;9.964;2023-02-26T10:47:06;1.63;;;0.90;;
44816;SDS011;30529;53.570;9.964;2023-02-26T10:50:00;1.80;;;0.70;;
44816;SDS011;30529;53.570;9.964;2023-02-26T10:52:30;2.77;;;0.87;;
44816;SDS011;30529;53.570;9.964;2023-02-26T11:00:22;1.27;;;0.60;;
44816;SDS011;30529;53.570;9.964;2023-02-26T11:02:49;1.57;;;0.70;;
44816;SDS011;30529;53.570;9.964;2023-02-26T11:05:25;1.13;;;0.77;;
44816;SDS011;30529;53.570;9.964;2023-02-26T11:07:56;1.20;;;1.03;;
44816;SDS011;30529;53.570;9.964;2023-02-26T11:10:27;1.93;;;0.80;;
44816;SDS011;30529;53.570;9.964;2023-02-26T11:13:02;1.00;;;0.70;;
44816;SDS011;30529;53.570;9.964;2023-02-26T11:15:28;1.77;;;0.73;;
44816;SDS011;30529;53.570;9.964;2023-02-26T11:17:56;4.57;;;1.97;;
44816;SDS011;30529;53.570;9.964;2023-02-26T11:20:36;2.77;;;1.30;;
44816;SDS011;30529;53.570;9.964;2023-02-26T11:23:06;4.83;;;0.93;;
44816;SDS011;30529;53.570;9.964;2023-02-26T11:25:36;1.83;;;0.90;;
44816;SDS011;30529;53.570;9.964;2023-02-26T11:28:04;2.90;;;0.83;;
44816;SDS011;30529;53.570;9.964;2023-02-26T11:30:36;2.30;;;0.63;;
44816;SDS011;30529;53.570;9.964;2023-02-26T11:33:05;1.57;;;0.63;;
44816;SDS011;30529;53.570;9.964;2023-02-26T11:35:43;0.73;;;0.70;;
44816;SDS011;30529;53.570;9.964;2023-02-26T11:38:14;1.47;;;0.80;;
44816;SDS011;30529;53.570;9.964;2023-02-26T11:40:53;2.17;;;0.77;;
44816;SDS011;30529;53.570;9.964;2023-02-26T11:43:22;2.83;;;0.87;;
44816;SDS011;30529;53.570;9.964;2023-02-26T11:45:53;3.50;;;0.90;;
44816;SDS011;30529;53.570;9.964;2023-02-26T11:48:24;5.03;;;1.00;;
44816;SDS011;30529;53.570;9.964;2023-02-26T11:50:58;3.40;;;1.30;;
44816;SDS011;30529;53.570;9.964;2023-02-26T11:53:29;2.83;;;1.47;;
44816;SDS011;30529;53.570;9.964;2023-02-26T11:56:08;5.77;;;1.17;;
44816;SDS011;30529;53.570;9.964;2023-02-26T11:58:39;2.03;;;1.10;;
44816;SDS011;30529;53.570;9.964;2023-02-26T12:01:10;3.50;;;1.37;;
44816;SDS011;30529;53.570;9.964;2023-02-26T12:03:38;1.93;;;0.90;;
44816;SDS011;30529;53.570;9.964;2023-02-26T12:06:18;1.83;;;0.87;;
44816;SDS011;30529;53.570;9.964;2023-02-26T12:08:46;3.37;;;0.97;;
44816;SDS011;30529;53.570;9.964;2023-02-26T12:19:49;1.83;;;0.87;;
44816;SDS011;30529;53.570;9.964;2023-02-26T12:22:26;2.40;;;1.30;;
44816;SDS011;30529;53.570;9.964;2023-02-26T12:33:33;3.07;;;1.00;;
44816;SDS011;30529;53.570;9.964;2023-02-26T12:36:11;4.10;;;1.13;;
44816;SDS011;30529;53.570;9.964;2023-02-26T12:39:17;2.77;;;1.20;;
44816;SDS011;30529;53.570;9.964;2023-02-26T12:42:09;3.07;;;1.33;;
44816;SDS011;30529;53.570;9.964;2023-02-26T12:44:57;2.70;;;1.33;;
44816;SDS011;30529;53.570;9.964;2023-02-26T12:53:30;1.57;;;0.70;;
44816;SDS011;30529;53.570;9.964;2023-02-26T12:56:15;4.43;;;1.00;;
44816;SDS011;30529;53.570;9.964;2023-02-26T13:15:43;3.67;;;0.70;;
44816;SDS011;30529;53.570;9.964;2023-02-26T13:18:30;3.73;;;1.20;;
44816;SDS011;30529;53.570;9.964;2023-02-26T13:21:17;4.20;;;1.23;;
44816;SDS011;30529;53.570;9.964;2023-02-26T13:26:44;3.10;;;1.10;;
44816;SDS011;30529;53.570;9.964;2023-02-26T13:29:20;4.83;;;1.03;;
44816;SDS011;30529;53.570;9.964;2023-02-26T13:34:35;1.87;;;0.97;;
44816;SDS011;30529;53.570;9.964;2023-02-26T13:37:30;4.57;;;1.70;;
44816;SDS011;30529;53.570;9.964;2023-02-26T13:43:05;2.73;;;1.03;;
44816;SDS011;30529;53.570;9.964;2023-02-26T13:45:45;2.77;;;0.90;;
44816;SDS011;30529;53.570;9.964;2023-02-26T13:56:44;2.07;;;1.10;;
44816;SDS011;30529;53.570;9.964;2023-02-26T13:59:29;6.00;;;1.40;;
44816;SDS011;30529;53.570;9.964;2023-02-26T14:08:41;4.83;;;1.10;;
44816;SDS011;30529;53.570;9.964;2023-02-26T14:10:44;3.87;;;1.00;;
44816;SDS011;30529;53.570;9.964;2023-02-26T14:13:17;3.40;;;1.00;;
44816;SDS011;30529;53.570;9.964;2023-02-26T14:18:19;4.50;;;1.00;;
44816;SDS011;30529;53.570;9.964;2023-02-26T14:20:52;3.37;;;0.93;;
44816;SDS011;30529;53.570;9.964;2023-02-26T14:26:46;1.47;;;1.03;;
44816;SDS011;30529;53.570;9.964;2023-02-26T14:29:25;3.37;;;1.00;;
44816;SDS011;30529;53.570;9.964;2023-02-26T14:34:51;3.87;;;1.17;;
44816;SDS011;30529;53.570;9.964;2023-02-26T14:37:21;3.40;;;1.07;;
44816;SDS011;30529;53.570;9.964;2023-02-26T14:39:53;3.93;;;1.23;;
44816;SDS011;30529;53.570;9.964;2023-02-26T14:42:37;3.93;;;1.23;;
44816;SDS011;30529;53.570;9.964;2023-02-26T14:47:44;3.03;;;0.90;;
44816;SDS011;30529;53.570;9.964;2023-02-26T14:50:15;4.83;;;1.30;;
44816;SDS011;30529;53.570;9.964;2023-02-26T14:58:35;2.37;;;1.27;;
44816;SDS011;30529;53.570;9.964;2023-02-26T15:01:27;2.63;;;0.93;;
44816;SDS011;30529;53.570;9.964;2023-02-26T15:04:19;2.23;;;1.00;;
44816;SDS011;30529;53.570;9.964;2023-02-26T15:10:23;2.90;;;1.00;;
44816;SDS011;30529;53.570;9.964;2023-02-26T15:15:35;1.60;;;0.93;;
44816;SDS011;30529;53.570;9.964;2023-02-26T15:18:07;1.70;;;0.90;;
44816;SDS011;30529;53.570;9.964;2023-02-26T15:26:07;1.60;;;0.93;;
44816;SDS011;30529;53.570;9.964;2023-02-26T15:28:43;3.73;;;1.20;;
44816;SDS011;30529;53.570;9.964;2023-02-26T15:31:10;3.93;;;1.00;;
44816;SDS011;30529;53.570;9.964;2023-02-26T15:33:37;5.70;;;1.17;;
44816;SDS011;30529;53.570;9.964;2023-02-26T15:36:10;8.33;;;1.53;;
44816;SDS011;30529;53.570;9.964;2023-02-26T15:38:44;3.73;;;1.20;;
44816;SDS011;30529;53.570;9.964;2023-02-26T15:41:12;3.07;;;1.10;;
44816;SDS011;30529;53.570;9.964;2023-02-26T15:43:40;2.27;;;1.10;;
44816;SDS011;30529;53.570;9.964;2023-02-26T15:46:13;2.13;;;1.20;;
44816;SDS011;30529;53.570;9.964;2023-02-26T15:48:39;2.37;;;1.10;;
44816;SDS011;30529;53.570;9.964;2023-02-26T15:51:07;2.37;;;1.07;;
44816;SDS011;30529;53.570;9.964;2023-02-26T15:53:38;7.40;;;1.97;;
44816;SDS011;30529;53.570;9.964;2023-02-26T15:56:14;6.97;;;1.50;;
44816;SDS011;30529;53.570;9.964;2023-02-26T15:58:46;2.93;;;1.20;;
44816;SDS011;30529;53.570;9.964;2023-02-26T16:01:16;2.33;;;0.90;;
44816;SDS011;30529;53.570;9.964;2023-02-26T16:03:44;3.03;;;1.07;;
44816;SDS011;30529;53.570;9.964;2023-02-26T16:06:12;1.80;;;1.10;;
44816;SDS011;30529;53.570;9.964;2023-02-26T16:08:42;2.20;;;0.93;;
44816;SDS011;30529;53.570;9.964;2023-02-26T16:11:11;6.07;;;1.27;;
44816;SDS011;30529;53.570;9.964;2023-02-26T16:13:39;2.93;;;1.00;;
44816;SDS011;30529;53.570;9.964;2023-02-26T16:16:09;2.17;;;1.00;;
44816;SDS011;30529;53.570;9.964;2023-02-26T16:18:38;3.17;;;1.10;;
44816;SDS011;30529;53.570;9.964;2023-02-26T16:21:06;3.13;;;1.20;;
44816;SDS011;30529;53.570;9.964;2023-02-26T16:26:12;3.30;;;1.07;;
44816;SDS011;30529;53.570;9.964;2023-02-26T16:28:43;3.57;;;2.10;;
44816;SDS011;30529;53.570;9.964;2023-02-26T16:31:16;4.67;;;1.40;;
44816;SDS011;30529;53.570;9.964;2023-02-26T16:36:55;5.00;;;1.40;;
44816;SDS011;30529;53.570;9.964;2023-02-26T16:39:23;2.00;;;1.20;;
44816;SDS011;30529;53.570;9.964;2023-02-26T16:42:00;3.37;;;0.90;;
44816;SDS011;30529;53.570;9.964;2023-02-26T16:48:20;3.73;;;1.40;;
44816;SDS011;30529;53.570;9.964;2023-02-26T16:51:02;5.57;;;1.30;;
44816;SDS011;30529;53.570;9.964;2023-02-26T16:53:36;3.20;;;1.40;;
44816;SDS011;30529;53.570;9.964;2023-02-26T16:56:10;4.33;;;1.27;;
44816;SDS011;30529;53.570;9.964;2023-02-26T16:58:44;4.87;;;1.70;;
44816;SDS011;30529;53.570;9.964;2023-02-26T17:01:17;3.17;;;1.20;;
44816;SDS011;30529;53.570;9.964;2023-02-26T17:03:45;3.07;;;1.30;;
44816;SDS011;30529;53.570;9.964;2023-02-26T17:06:27;4.20;;;1.47;;
44816;SDS011;30529;53.570;9.964;2023-02-26T17:08:56;5.20;;;1.27;;
44816;SDS011;30529;53.570;9.964;2023-02-26T17:11:28;4.80;;;1.47;;
44816;SDS011;30529;53.570;9.964;2023-02-26T17:16:47;3.80;;;1.33;;
44816;SDS011;30529;53.570;9.964;2023-02-26T17:19:14;3.03;;;1.37;;
44816;SDS011;30529;53.570;9.964;2023-02-26T17:21:45;5.90;;;1.67;;
44816;SDS011;30529;53.570;9.964;2023-02-26T17:24:23;3.80;;;1.50;;
44816;SDS011;30529;53.570;9.964;2023-02-26T17:26:54;4.40;;;1.53;;
44816;SDS011;30529;53.570;9.964;2023-02-26T17:29:21;5.40;;;1.40;;
44816;SDS011;30529;53.570;9.964;2023-02-26T17:31:54;4.33;;;2.20;;
44816;SDS011;30529;53.570;9.964;2023-02-26T17:34:20;4.63;;;1.40;;
44816;SDS011;30529;53.570;9.964;2023-02-26T17:36:47;5.20;;;1.77;;
44816;SDS011;30529;53.570;9.964;2023-02-26T17:39:13;4.10;;;1.40;;
44816;SDS011;30529;53.570;9.964;2023-02-26T17:41:41;3.07;;;1.40;;
44816;SDS011;30529;53.570;9.964;2023-02-26T17:44:08;1.87;;;1.30;;
44816;SDS011;30529;53.570;9.964;2023-02-26T17:46:34;5.80;;;1.80;;
44816;SDS011;30529;53.570;9.964;2023-02-26T17:49:00;5.03;;;1.83;;
44816;SDS011;30529;53.570;9.964;2023-02-26T17:51:26;4.43;;;1.90;;
44816;SDS011;30529;53.570;9.964;2023-02-26T17:53:53;4.47;;;1.43;;
44816;SDS011;30529;53.570;9.964;2023-02-26T17:56:26;3.60;;;1.60;;
44816;SDS011;30529;53.570;9.964;2023-02-26T17:58:54;4.37;;;1.60;;
44816;SDS011;30529;53.570;9.964;2023-02-26T18:01:22;4.67;;;1.80;;
44816;SDS011;30529;53.570;9.964;2023-02-26T18:03:49;6.37;;;2.07;;
44816;SDS011;30529;53.570;9.964;2023-02-26T18:06:15;4.20;;;1.73;;
44816;SDS011;30529;53.570;9.964;2023-02-26T18:08:42;5.03;;;2.20;;
44816;SDS011;30529;53.570;9.964;2023-02-26T18:11:11;4.00;;;2.00;;
44816;SDS011;30529;53.570;9.964;2023-02-26T18:13:38;5.07;;;2.13;;
44816;SDS011;30529;53.570;9.964;2023-02-26T18:16:04;3.13;;;1.83;;
44816;SDS011;30529;53.570;9.964;2023-02-26T18:18:31;5.43;;;2.20;;
44816;SDS011;30529;53.570;9.964;2023-02-26T18:20:58;6.13;;;1.83;;
44816;SDS011;30529;53.570;9.964;2023-02-26T18:23:24;6.33;;;1.97;;
44816;SDS011;30529;53.570;9.964;2023-02-26T18:25:51;6.03;;;2.00;;
44816;SDS011;30529;53.570;9.964;2023-02-26T18:28:20;5.47;;;2.27;;
44816;SDS011;30529;53.570;9.964;2023-02-26T18:30:48;5.13;;;1.80;;
44816;SDS011;30529;53.570;9.964;2023-02-26T18:33:15;4.03;;;2.13;;
44816;SDS011;30529;53.570;9.964;2023-02-26T18:35:42;7.80;;;2.20;;
44816;SDS011;30529;53.570;9.964;2023-02-26T18:38:15;4.37;;;2.40;;
44816;SDS011;30529;53.570;9.964;2023-02-26T18:40:43;5.73;;;2.20;;
44816;SDS011;30529;53.570;9.964;2023-02-26T18:43:10;9.40;;;3.90;;
44816;SDS011;30529;53.570;9.964;2023-02-26T18:45:43;6.07;;;2.17;;
44816;SDS011;30529;53.570;9.964;2023-02-26T18:48:11;7.10;;;2.70;;
44816;SDS011;30529;53.570;9.964;2023-02-26T18:50:40;7.30;;;3.10;;
44816;SDS011;30529;53.570;9.964;2023-02-26T18:53:10;8.00;;;2.40;;
44816;SDS011;30529;53.570;9.964;2023-02-26T18:55:36;7.23;;;2.90;;
44816;SDS011;30529;53.570;9.964;2023-02-26T18:58:03;8.67;;;2.93;;
44816;SDS011;30529;53.570;9.964;2023-02-26T19:00:29;6.27;;;2.77;;
44816;SDS011;30529;53.570;9.964;2023-02-26T19:02:55;5.97;;;2.50;;
44816;SDS011;30529;53.570;9.964;2023-02-26T19:05:22;8.80;;;3.50;;
44816;SDS011;30529;53.570;9.964;2023-02-26T19:07:49;5.65;;;2.25;;
44816;SDS011;30529;53.570;9.964;2023-02-26T19:10:16;5.50;;;2.17;;
44816;SDS011;30529;53.570;9.964;2023-02-26T19:12:43;7.80;;;2.40;;
44816;SDS011;30529;53.570;9.964;2023-02-26T19:15:09;5.03;;;2.43;;
44816;SDS011;30529;53.570;9.964;2023-02-26T19:17:37;4.97;;;2.27;;
44816;SDS011;30529;53.570;9.964;2023-02-26T19:20:04;4.80;;;2.30;;
44816;SDS011;30529;53.570;9.964;2023-02-26T19:22:31;4.90;;;2.27;;
44816;SDS011;30529;53.570;9.964;2023-02-26T19:24:57;5.50;;;2.70;;
44816;SDS011;30529;53.570;9.964;2023-02-26T19:27:25;4.20;;;2.23;;
44816;SDS011;30529;53.570;9.964;2023-02-26T19:33:41;5.67;;;2.93;;
44816;SDS011;30529;53.570;9.964;2023-02-26T19:36:07;6.07;;;2.20;;
44816;SDS011;30529;53.570;9.964;2023-02-26T19:38:34;4.70;;;2.47;;
44816;SDS011;30529;53.570;9.964;2023-02-26T19:41:02;5.67;;;2.03;;
44816;SDS011;30529;53.570;9.964;2023-02-26T19:43:39;6.13;;;2.80;;